sensor_id;sensor_type;location;lat;lon;timestamp;P1;durP1;ratioP1;P2;durP2;ratioP2
13989;SDS011;7069;52.528;13.316;2023-02-07T00:00:13;35.17;;;22.00;;
13989;SDS011;7069;52.528;13.316;2023-02-07T00:02:40;30.90;;;20.27;;
13989;SDS011;7069;52.528;13.316;2023-02-07T00:05:07;29.60;;;21.83;;
13989;SDS011;7069;52.528;13.316;2023-02-07T00:07:35;32.50;;;24.10;;
13989;SDS011;7069;52.528;13.316;2023-02-07T00:10:01;33.67;;;24.97;;
13989;SDS011;7069;52.528;13.316;2023-02-07T00:12:28;34.77;;;24.87;;
13989;SDS011;7069;52.528;13.316;2023-02-07T00:14:54;37.77;;;23.57;;
13989;SDS011;7069;52.528;13.316;2023-02-07T00:17:20;34.50;;;24.03;;
13989;SDS011;7069;52.528;13.316;2023-02-07T00:19:47;34.20;;;23.20;;
13989;SDS011;7069;52.528;13.316;2023-02-07T00:22:13;39.17;;;28.80;;
13989;SDS011;7069;52.528;13.316;2023-02-07T00:24:41;43.53;;;29.63;;
13989;SDS011;7069;52.528;13.316;2023-02-07T00:27:07;45.23;;;32.33;;
13989;SDS011;7069;52.528;13.316;2023-02-07T00:29:34;48.27;;;32.43;;
13989;SDS011;7069;52.528;13.316;2023-02-07T00:32:00;44.63;;;30.83;;
13989;SDS011;7069;52.528;13.316;2023-02-07T00:34:27;45.77;;;29.03;;
13989;SDS011;7069;52.528;13.316;2023-02-07T00:36:53;35.27;;;24.50;;
13989;SDS011;7069;52.528;13.316;2023-02-07T00:39:19;37.37;;;27.37;;
13989;SDS011;7069;52.528;13.316;2023-02-07T00:41:47;44.67;;;25.87;;
13989;SDS011;7069;52.528;13.316;2023-02-07T00:44:14;38.97;;;24.80;;
13989;SDS011;7069;52.528;13.316;2023-02-07T00:46:40;38.70;;;28.00;;
13989;SDS011;7069;52.528;13.316;2023-02-07T00:49:07;39.03;;;26.23;;
13989;SDS011;7069;52.528;13.316;2023-02-07T00:51:33;39.93;;;26.43;;
13989;SDS011;7069;52.528;13.316;2023-02-07T00:54:00;35.77;;;24.20;;
13989;SDS011;7069;52.528;13.316;2023-02-07T00:56:27;31.37;;;23.47;;
13989;SDS011;7069;52.528;13.316;2023-02-07T00:58:55;33.53;;;22.83;;
13989;SDS011;7069;52.528;13.316;2023-02-07T01:01:21;35.30;;;22.47;;
13989;SDS011;7069;52.528;13.316;2023-02-07T01:03:48;34.83;;;22.37;;
13989;SDS011;7069;52.528;13.316;2023-02-07T01:06:15;27.43;;;20.33;;
13989;SDS011;7069;52.528;13.316;2023-02-07T01:08:41;33.37;;;22.70;;
13989;SDS011;7069;52.528;13.316;2023-02-07T01:11:08;33.03;;;22.20;;
13989;SDS011;7069;52.528;13.316;2023-02-07T01:13:35;31.57;;;21.70;;
13989;SDS011;7069;52.528;13.316;2023-02-07T01:16:03;32.30;;;21.37;;
13989;SDS011;7069;52.528;13.316;2023-02-07T01:18:29;31.23;;;22.87;;
13989;SDS011;7069;52.528;13.316;2023-02-07T01:20:56;33.03;;;21.30;;
13989;SDS011;7069;52.528;13.316;2023-02-07T01:23:22;32.90;;;21.67;;
13989;SDS011;7069;52.528;13.316;2023-02-07T01:25:49;30.77;;;22.07;;
13989;SDS011;7069;52.528;13.316;2023-02-07T01:28:15;34.40;;;21.57;;
13989;SDS011;7069;52.528;13.316;2023-02-07T01:30:42;34.40;;;22.23;;
13989;SDS011;7069;52.528;13.316;2023-02-07T01:33:10;26.07;;;20.83;;
13989;SDS011;7069;52.528;13.316;2023-02-07T01:35:37;35.67;;;22.23;;
13989;SDS011;7069;52.528;13.316;2023-02-07T01:38:03;32.20;;;23.50;;
13989;SDS011;7069;52.528;13.316;2023-02-07T01:40:30;33.20;;;22.53;;
13989;SDS011;7069;52.528;13.316;2023-02-07T01:42:57;35.10;;;23.00;;
13989;SDS011;7069;52.528;13.316;2023-02-07T01:45:26;32.97;;;21.03;;
13989;SDS011;7069;52.528;13.316;2023-02-07T01:47:53;31.67;;;23.63;;
13989;SDS011;7069;52.528;13.316;2023-02-07T01:50:22;35.73;;;23.63;;
13989;SDS011;7069;52.528;13.316;2023-02-07T01:52:49;32.33;;;22.27;;
13989;SDS011;7069;52.528;13.316;2023-02-07T01:55:17;31.47;;;23.33;;
13989;SDS011;7069;52.528;13.316;2023-02-07T01:57:46;31.80;;;23.37;;
13989;SDS011;7069;52.528;13.316;2023-02-07T02:00:13;39.07;;;23.27;;
13989;SDS011;7069;52.528;13.316;2023-02-07T02:02:40;39.37;;;23.67;;
13989;SDS011;7069;52.528;13.316;2023-02-07T02:05:07;34.50;;;24.23;;
13989;SDS011;7069;52.528;13.316;2023-02-07T02:07:35;35.43;;;24.90;;
13989;SDS011;7069;52.528;13.316;2023-02-07T02:10:05;36.97;;;23.57;;
13989;SDS011;7069;52.528;13.316;2023-02-07T02:12:42;34.93;;;24.47;;
13989;SDS011;7069;52.528;13.316;2023-02-07T02:15:16;31.60;;;23.97;;
13989;SDS011;7069;52.528;13.316;2023-02-07T02:17:49;28.73;;;22.03;;
13989;SDS011;7069;52.528;13.316;2023-02-07T02:20:31;31.67;;;23.33;;
13989;SDS011;7069;52.528;13.316;2023-02-07T02:23:07;36.43;;;24.00;;
13989;SDS011;7069;52.528;13.316;2023-02-07T02:28:45;30.27;;;22.27;;
13989;SDS011;7069;52.528;13.316;2023-02-07T02:31:22;31.93;;;23.23;;
13989;SDS011;7069;52.528;13.316;2023-02-07T02:33:54;33.87;;;22.03;;
13989;SDS011;7069;52.528;13.316;2023-02-07T02:36:23;32.57;;;24.03;;
13989;SDS011;7069;52.528;13.316;2023-02-07T02:38:51;31.93;;;24.07;;
13989;SDS011;7069;52.528;13.316;2023-02-07T02:41:22;32.33;;;22.10;;
13989;SDS011;7069;52.528;13.316;2023-02-07T02:43:50;36.60;;;25.43;;
13989;SDS011;7069;52.528;13.316;2023-02-07T02:46:19;35.33;;;22.47;;
13989;SDS011;7069;52.528;13.316;2023-02-07T02:48:46;32.00;;;22.17;;
13989;SDS011;7069;52.528;13.316;2023-02-07T02:51:15;34.90;;;23.13;;
13989;SDS011;7069;52.528;13.316;2023-02-07T02:53:49;29.67;;;22.63;;
13989;SDS011;7069;52.528;13.316;2023-02-07T02:56:20;32.80;;;21.90;;
13989;SDS011;7069;52.528;13.316;2023-02-07T02:58:57;31.60;;;21.07;;
13989;SDS011;7069;52.528;13.316;2023-02-07T03:01:27;35.03;;;23.23;;
13989;SDS011;7069;52.528;13.316;2023-02-07T03:03:59;30.50;;;22.57;;
13989;SDS011;7069;52.528;13.316;2023-02-07T03:06:36;29.57;;;22.10;;
13989;SDS011;7069;52.528;13.316;2023-02-07T03:09:10;29.27;;;20.23;;
13989;SDS011;7069;52.528;13.316;2023-02-07T03:11:41;37.00;;;22.63;;
13989;SDS011;7069;52.528;13.316;2023-02-07T03:14:14;30.00;;;23.53;;
13989;SDS011;7069;52.528;13.316;2023-02-07T03:16:46;33.37;;;21.97;;
13989;SDS011;7069;52.528;13.316;2023-02-07T03:19:16;32.33;;;21.57;;
13989;SDS011;7069;52.528;13.316;2023-02-07T03:21:47;30.93;;;21.53;;
13989;SDS011;7069;52.528;13.316;2023-02-07T03:24:16;34.50;;;23.27;;
13989;SDS011;7069;52.528;13.316;2023-02-07T03:26:44;29.77;;;22.47;;
13989;SDS011;7069;52.528;13.316;2023-02-07T03:29:12;31.87;;;21.60;;
13989;SDS011;7069;52.528;13.316;2023-02-07T03:31:40;29.60;;;21.90;;
13989;SDS011;7069;52.528;13.316;2023-02-07T03:34:08;27.87;;;20.83;;
13989;SDS011;7069;52.528;13.316;2023-02-07T03:36:37;31.17;;;22.10;;
13989;SDS011;7069;52.528;13.316;2023-02-07T03:39:06;31.87;;;21.20;;
13989;SDS011;7069;52.528;13.316;2023-02-07T03:41:34;30.73;;;21.77;;
13989;SDS011;7069;52.528;13.316;2023-02-07T03:44:03;28.40;;;20.40;;
13989;SDS011;7069;52.528;13.316;2023-02-07T03:46:33;30.00;;;20.87;;
13989;SDS011;7069;52.528;13.316;2023-02-07T03:48:59;35.90;;;23.77;;
13989;SDS011;7069;52.528;13.316;2023-02-07T03:51:26;30.00;;;20.17;;
13989;SDS011;7069;52.528;13.316;2023-02-07T03:53:52;30.53;;;21.73;;
13989;SDS011;7069;52.528;13.316;2023-02-07T03:56:20;33.00;;;22.17;;
13989;SDS011;7069;52.528;13.316;2023-02-07T03:58:47;29.40;;;21.87;;
13989;SDS011;7069;52.528;13.316;2023-02-07T04:01:14;31.70;;;23.80;;
13989;SDS011;7069;52.528;13.316;2023-02-07T04:03:41;35.07;;;22.83;;
13989;SDS011;7069;52.528;13.316;2023-02-07T04:06:07;39.03;;;23.07;;
13989;SDS011;7069;52.528;13.316;2023-02-07T04:08:34;33.17;;;22.83;;
13989;SDS011;7069;52.528;13.316;2023-02-07T04:11:01;32.73;;;23.00;;
13989;SDS011;7069;52.528;13.316;2023-02-07T04:13:30;33.30;;;22.33;;
13989;SDS011;7069;52.528;13.316;2023-02-07T04:15:56;34.73;;;22.33;;
13989;SDS011;7069;52.528;13.316;2023-02-07T04:18:23;29.10;;;22.07;;
13989;SDS011;7069;52.528;13.316;2023-02-07T04:20:49;29.73;;;22.57;;
13989;SDS011;7069;52.528;13.316;2023-02-07T04:23:16;32.60;;;23.30;;
13989;SDS011;7069;52.528;13.316;2023-02-07T04:25:43;30.43;;;23.23;;
13989;SDS011;7069;52.528;13.316;2023-02-07T04:28:09;31.07;;;21.67;;
13989;SDS011;7069;52.528;13.316;2023-02-07T04:30:37;32.67;;;23.70;;
13989;SDS011;7069;52.528;13.316;2023-02-07T04:33:04;33.03;;;21.97;;
13989;SDS011;7069;52.528;13.316;2023-02-07T04:35:31;37.93;;;22.83;;
13989;SDS011;7069;52.528;13.316;2023-02-07T04:37:57;30.63;;;22.13;;
13989;SDS011;7069;52.528;13.316;2023-02-07T04:40:24;33.33;;;22.50;;
13989;SDS011;7069;52.528;13.316;2023-02-07T04:42:50;31.00;;;22.60;;
13989;SDS011;7069;52.528;13.316;2023-02-07T04:45:17;28.93;;;21.70;;
13989;SDS011;7069;52.528;13.316;2023-02-07T04:47:45;30.50;;;21.57;;
13989;SDS011;7069;52.528;13.316;2023-02-07T04:50:12;33.27;;;21.83;;
13989;SDS011;7069;52.528;13.316;2023-02-07T04:52:39;37.47;;;24.20;;
13989;SDS011;7069;52.528;13.316;2023-02-07T04:55:05;33.60;;;23.50;;
13989;SDS011;7069;52.528;13.316;2023-02-07T04:57:32;30.63;;;24.37;;
13989;SDS011;7069;52.528;13.316;2023-02-07T04:59:59;31.00;;;23.20;;
13989;SDS011;7069;52.528;13.316;2023-02-07T05:02:25;35.50;;;23.17;;
13989;SDS011;7069;52.528;13.316;2023-02-07T05:04:53;32.40;;;22.03;;
13989;SDS011;7069;52.528;13.316;2023-02-07T05:07:20;29.40;;;21.87;;
13989;SDS011;7069;52.528;13.316;2023-02-07T05:09:47;37.80;;;24.43;;
13989;SDS011;7069;52.528;13.316;2023-02-07T05:12:13;37.67;;;24.67;;
13989;SDS011;7069;52.528;13.316;2023-02-07T05:14:40;33.50;;;23.20;;
13989;SDS011;7069;52.528;13.316;2023-02-07T05:17:06;31.27;;;23.80;;
13989;SDS011;7069;52.528;13.316;2023-02-07T05:19:33;35.73;;;22.80;;
13989;SDS011;7069;52.528;13.316;2023-02-07T05:22:01;34.80;;;23.63;;
13989;SDS011;7069;52.528;13.316;2023-02-07T05:24:28;35.23;;;26.10;;
13989;SDS011;7069;52.528;13.316;2023-02-07T05:26:54;42.90;;;26.03;;
13989;SDS011;7069;52.528;13.316;2023-02-07T05:29:21;38.27;;;26.47;;
13989;SDS011;7069;52.528;13.316;2023-02-07T05:31:48;36.60;;;24.47;;
13989;SDS011;7069;52.528;13.316;2023-02-07T05:34:32;33.57;;;24.17;;
13989;SDS011;7069;52.528;13.316;2023-02-07T05:36:58;41.87;;;25.83;;
13989;SDS011;7069;52.528;13.316;2023-02-07T05:39:27;41.10;;;25.53;;
13989;SDS011;7069;52.528;13.316;2023-02-07T05:41:53;36.63;;;25.60;;
13989;SDS011;7069;52.528;13.316;2023-02-07T05:44:20;32.00;;;24.33;;
13989;SDS011;7069;52.528;13.316;2023-02-07T05:46:47;33.23;;;24.33;;
13989;SDS011;7069;52.528;13.316;2023-02-07T05:49:13;35.90;;;25.50;;
13989;SDS011;7069;52.528;13.316;2023-02-07T05:51:40;36.30;;;24.67;;
13989;SDS011;7069;52.528;13.316;2023-02-07T05:54:07;32.87;;;23.00;;
13989;SDS011;7069;52.528;13.316;2023-02-07T05:56:34;34.67;;;24.50;;
13989;SDS011;7069;52.528;13.316;2023-02-07T05:59:01;38.37;;;24.87;;
13989;SDS011;7069;52.528;13.316;2023-02-07T06:01:28;36.73;;;24.63;;
13989;SDS011;7069;52.528;13.316;2023-02-07T06:03:54;39.97;;;25.87;;
13989;SDS011;7069;52.528;13.316;2023-02-07T06:06:21;38.90;;;25.43;;
13989;SDS011;7069;52.528;13.316;2023-02-07T06:08:48;37.57;;;24.23;;
13989;SDS011;7069;52.528;13.316;2023-02-07T06:11:14;35.30;;;25.83;;
13989;SDS011;7069;52.528;13.316;2023-02-07T06:13:43;42.37;;;27.63;;
13989;SDS011;7069;52.528;13.316;2023-02-07T06:16:09;38.10;;;27.23;;
13989;SDS011;7069;52.528;13.316;2023-02-07T06:18:36;42.47;;;27.00;;
13989;SDS011;7069;52.528;13.316;2023-02-07T06:21:02;42.33;;;28.00;;
13989;SDS011;7069;52.528;13.316;2023-02-07T06:23:29;39.13;;;26.87;;
13989;SDS011;7069;52.528;13.316;2023-02-07T06:25:56;41.33;;;26.07;;
13989;SDS011;7069;52.528;13.316;2023-02-07T06:28:22;39.83;;;27.10;;
13989;SDS011;7069;52.528;13.316;2023-02-07T06:30:51;37.13;;;25.73;;
13989;SDS011;7069;52.528;13.316;2023-02-07T06:33:17;33.50;;;23.67;;
13989;SDS011;7069;52.528;13.316;2023-02-07T06:35:45;34.53;;;23.83;;
13989;SDS011;7069;52.528;13.316;2023-02-07T06:38:11;37.73;;;24.53;;
13989;SDS011;7069;52.528;13.316;2023-02-07T06:40:38;36.00;;;24.87;;
13989;SDS011;7069;52.528;13.316;2023-02-07T06:43:05;45.10;;;24.80;;
13989;SDS011;7069;52.528;13.316;2023-02-07T06:45:32;36.70;;;24.43;;
13989;SDS011;7069;52.528;13.316;2023-02-07T06:48:00;38.87;;;24.87;;
13989;SDS011;7069;52.528;13.316;2023-02-07T06:50:26;30.50;;;22.80;;
13989;SDS011;7069;52.528;13.316;2023-02-07T06:52:53;32.30;;;23.57;;
13989;SDS011;7069;52.528;13.316;2023-02-07T06:55:25;30.83;;;20.07;;
13989;SDS011;7069;52.528;13.316;2023-02-07T06:57:52;35.00;;;23.27;;
13989;SDS011;7069;52.528;13.316;2023-02-07T07:00:19;34.93;;;22.63;;
13989;SDS011;7069;52.528;13.316;2023-02-07T07:02:46;28.63;;;21.93;;
13989;SDS011;7069;52.528;13.316;2023-02-07T07:05:14;31.83;;;21.47;;
13989;SDS011;7069;52.528;13.316;2023-02-07T07:07:40;29.20;;;21.77;;
13989;SDS011;7069;52.528;13.316;2023-02-07T07:10:07;29.20;;;21.00;;
13989;SDS011;7069;52.528;13.316;2023-02-07T07:12:34;31.03;;;20.90;;
13989;SDS011;7069;52.528;13.316;2023-02-07T07:15:00;30.13;;;21.17;;
13989;SDS011;7069;52.528;13.316;2023-02-07T07:17:27;30.23;;;22.30;;
13989;SDS011;7069;52.528;13.316;2023-02-07T07:19:53;36.43;;;26.50;;
13989;SDS011;7069;52.528;13.316;2023-02-07T07:22:22;40.73;;;27.20;;
13989;SDS011;7069;52.528;13.316;2023-02-07T07:24:49;37.20;;;25.57;;
13989;SDS011;7069;52.528;13.316;2023-02-07T07:27:16;36.97;;;25.50;;
13989;SDS011;7069;52.528;13.316;2023-02-07T07:29:43;31.60;;;23.53;;
13989;SDS011;7069;52.528;13.316;2023-02-07T07:32:09;35.27;;;26.03;;
13989;SDS011;7069;52.528;13.316;2023-02-07T07:34:36;42.83;;;29.40;;
13989;SDS011;7069;52.528;13.316;2023-02-07T07:37:03;37.53;;;28.13;;
13989;SDS011;7069;52.528;13.316;2023-02-07T07:39:31;35.23;;;26.60;;
13989;SDS011;7069;52.528;13.316;2023-02-07T07:41:58;36.93;;;29.30;;
13989;SDS011;7069;52.528;13.316;2023-02-07T07:44:25;37.30;;;26.27;;
13989;SDS011;7069;52.528;13.316;2023-02-07T07:46:51;37.53;;;26.07;;
13989;SDS011;7069;52.528;13.316;2023-02-07T07:49:18;37.03;;;25.90;;
13989;SDS011;7069;52.528;13.316;2023-02-07T07:51:44;34.53;;;26.83;;
13989;SDS011;7069;52.528;13.316;2023-02-07T07:54:11;39.13;;;28.30;;
13989;SDS011;7069;52.528;13.316;2023-02-07T07:56:39;38.10;;;27.00;;
13989;SDS011;7069;52.528;13.316;2023-02-07T07:59:06;35.87;;;26.20;;
13989;SDS011;7069;52.528;13.316;2023-02-07T08:01:32;33.20;;;23.80;;
13989;SDS011;7069;52.528;13.316;2023-02-07T08:03:59;34.23;;;24.20;;
13989;SDS011;7069;52.528;13.316;2023-02-07T08:06:27;33.97;;;23.17;;
13989;SDS011;7069;52.528;13.316;2023-02-07T08:08:54;31.23;;;22.87;;
13989;SDS011;7069;52.528;13.316;2023-02-07T08:11:20;31.43;;;22.20;;
13989;SDS011;7069;52.528;13.316;2023-02-07T08:13:48;34.13;;;21.80;;
13989;SDS011;7069;52.528;13.316;2023-02-07T08:16:15;25.30;;;18.73;;
13989;SDS011;7069;52.528;13.316;2023-02-07T08:18:42;25.77;;;19.70;;
13989;SDS011;7069;52.528;13.316;2023-02-07T08:21:09;27.97;;;20.47;;
13989;SDS011;7069;52.528;13.316;2023-02-07T08:23:36;26.27;;;19.40;;
13989;SDS011;7069;52.528;13.316;2023-02-07T08:26:02;29.10;;;19.83;;
13989;SDS011;7069;52.528;13.316;2023-02-07T08:28:29;22.90;;;17.33;;
13989;SDS011;7069;52.528;13.316;2023-02-07T08:30:59;22.87;;;17.23;;
13989;SDS011;7069;52.528;13.316;2023-02-07T08:33:26;22.80;;;17.33;;
13989;SDS011;7069;52.528;13.316;2023-02-07T08:35:53;25.77;;;16.90;;
13989;SDS011;7069;52.528;13.316;2023-02-07T08:38:20;25.57;;;17.37;;
13989;SDS011;7069;52.528;13.316;2023-02-07T08:40:46;28.20;;;17.77;;
13989;SDS011;7069;52.528;13.316;2023-02-07T08:43:13;21.80;;;16.50;;
13989;SDS011;7069;52.528;13.316;2023-02-07T08:45:40;25.87;;;16.87;;
13989;SDS011;7069;52.528;13.316;2023-02-07T08:48:08;29.03;;;16.40;;
13989;SDS011;7069;52.528;13.316;2023-02-07T08:50:34;22.70;;;18.13;;
13989;SDS011;7069;52.528;13.316;2023-02-07T08:53:01;27.47;;;17.27;;
13989;SDS011;7069;52.528;13.316;2023-02-07T08:55:27;21.37;;;15.43;;
13989;SDS011;7069;52.528;13.316;2023-02-07T08:57:54;21.47;;;16.70;;
13989;SDS011;7069;52.528;13.316;2023-02-07T09:00:21;20.13;;;14.43;;
13989;SDS011;7069;52.528;13.316;2023-02-07T09:02:48;22.37;;;15.27;;
13989;SDS011;7069;52.528;13.316;2023-02-07T09:05:16;22.50;;;15.90;;
13989;SDS011;7069;52.528;13.316;2023-02-07T09:07:42;27.83;;;16.07;;
13989;SDS011;7069;52.528;13.316;2023-02-07T09:10:09;26.13;;;15.40;;
13989;SDS011;7069;52.528;13.316;2023-02-07T09:12:36;26.33;;;16.63;;
13989;SDS011;7069;52.528;13.316;2023-02-07T09:15:03;22.43;;;16.83;;
13989;SDS011;7069;52.528;13.316;2023-02-07T09:17:31;22.83;;;14.57;;
13989;SDS011;7069;52.528;13.316;2023-02-07T09:19:57;26.73;;;17.40;;
13989;SDS011;7069;52.528;13.316;2023-02-07T09:22:25;22.57;;;16.67;;
13989;SDS011;7069;52.528;13.316;2023-02-07T09:24:52;30.23;;;16.13;;
13989;SDS011;7069;52.528;13.316;2023-02-07T09:27:19;22.97;;;15.73;;
13989;SDS011;7069;52.528;13.316;2023-02-07T09:29:45;21.67;;;16.17;;
13989;SDS011;7069;52.528;13.316;2023-02-07T09:32:12;22.30;;;15.87;;
13989;SDS011;7069;52.528;13.316;2023-02-07T09:34:38;21.63;;;15.23;;
13989;SDS011;7069;52.528;13.316;2023-02-07T09:37:05;25.90;;;17.63;;
13989;SDS011;7069;52.528;13.316;2023-02-07T09:39:34;21.57;;;15.63;;
13989;SDS011;7069;52.528;13.316;2023-02-07T09:42:03;21.27;;;15.60;;
13989;SDS011;7069;52.528;13.316;2023-02-07T09:44:39;30.77;;;16.47;;
13989;SDS011;7069;52.528;13.316;2023-02-07T09:47:08;18.40;;;13.80;;
13989;SDS011;7069;52.528;13.316;2023-02-07T09:49:40;21.97;;;14.37;;
13989;SDS011;7069;52.528;13.316;2023-02-07T09:52:11;20.40;;;13.60;;
13989;SDS011;7069;52.528;13.316;2023-02-07T09:54:42;15.73;;;12.33;;
13989;SDS011;7069;52.528;13.316;2023-02-07T09:57:13;17.50;;;13.13;;
13989;SDS011;7069;52.528;13.316;2023-02-07T09:59:42;19.33;;;13.23;;
13989;SDS011;7069;52.528;13.316;2023-02-07T10:02:16;19.03;;;13.37;;
13989;SDS011;7069;52.528;13.316;2023-02-07T10:04:44;18.97;;;13.70;;
13989;SDS011;7069;52.528;13.316;2023-02-07T10:07:13;16.13;;;13.27;;
13989;SDS011;7069;52.528;13.316;2023-02-07T10:09:40;23.63;;;15.10;;
13989;SDS011;7069;52.528;13.316;2023-02-07T10:12:12;19.77;;;15.03;;
13989;SDS011;7069;52.528;13.316;2023-02-07T10:14:48;18.67;;;12.73;;
13989;SDS011;7069;52.528;13.316;2023-02-07T10:17:35;21.23;;;13.60;;
13989;SDS011;7069;52.528;13.316;2023-02-07T10:20:15;17.63;;;12.80;;
13989;SDS011;7069;52.528;13.316;2023-02-07T10:22:47;19.43;;;13.27;;
13989;SDS011;7069;52.528;13.316;2023-02-07T10:25:20;21.07;;;13.70;;
13989;SDS011;7069;52.528;13.316;2023-02-07T10:27:52;21.87;;;13.47;;
13989;SDS011;7069;52.528;13.316;2023-02-07T10:30:22;19.53;;;13.73;;
13989;SDS011;7069;52.528;13.316;2023-02-07T10:32:52;21.60;;;14.50;;
13989;SDS011;7069;52.528;13.316;2023-02-07T10:35:20;21.87;;;14.27;;
13989;SDS011;7069;52.528;13.316;2023-02-07T10:37:49;18.70;;;13.70;;
13989;SDS011;7069;52.528;13.316;2023-02-07T10:40:18;19.00;;;15.00;;
13989;SDS011;7069;52.528;13.316;2023-02-07T10:42:49;18.43;;;14.00;;
13989;SDS011;7069;52.528;13.316;2023-02-07T10:45:18;18.47;;;12.97;;
13989;SDS011;7069;52.528;13.316;2023-02-07T10:47:45;20.80;;;12.47;;
13989;SDS011;7069;52.528;13.316;2023-02-07T10:50:14;16.47;;;12.33;;
13989;SDS011;7069;52.528;13.316;2023-02-07T10:52:41;18.57;;;13.33;;
13989;SDS011;7069;52.528;13.316;2023-02-07T10:55:09;21.93;;;14.33;;
13989;SDS011;7069;52.528;13.316;2023-02-07T10:57:36;23.17;;;15.70;;
13989;SDS011;7069;52.528;13.316;2023-02-07T11:00:04;20.07;;;13.73;;
13989;SDS011;7069;52.528;13.316;2023-02-07T11:02:39;24.70;;;14.00;;
13989;SDS011;7069;52.528;13.316;2023-02-07T11:05:32;19.17;;;12.97;;
13989;SDS011;7069;52.528;13.316;2023-02-07T11:08:00;23.10;;;15.57;;
13989;SDS011;7069;52.528;13.316;2023-02-07T11:10:27;19.67;;;13.50;;
13989;SDS011;7069;52.528;13.316;2023-02-07T11:12:57;19.83;;;14.27;;
13989;SDS011;7069;52.528;13.316;2023-02-07T11:15:26;22.77;;;13.43;;
13989;SDS011;7069;52.528;13.316;2023-02-07T11:17:55;19.57;;;12.93;;
13989;SDS011;7069;52.528;13.316;2023-02-07T11:20:23;17.27;;;12.93;;
13989;SDS011;7069;52.528;13.316;2023-02-07T11:22:51;19.37;;;12.97;;
13989;SDS011;7069;52.528;13.316;2023-02-07T11:25:17;16.53;;;12.83;;
13989;SDS011;7069;52.528;13.316;2023-02-07T11:27:45;18.70;;;13.33;;
13989;SDS011;7069;52.528;13.316;2023-02-07T11:30:14;16.90;;;11.80;;
13989;SDS011;7069;52.528;13.316;2023-02-07T11:32:41;18.77;;;13.40;;
13989;SDS011;7069;52.528;13.316;2023-02-07T11:35:15;17.20;;;11.97;;
13989;SDS011;7069;52.528;13.316;2023-02-07T11:37:45;18.40;;;11.00;;
13989;SDS011;7069;52.528;13.316;2023-02-07T11:40:23;15.30;;;11.53;;
13989;SDS011;7069;52.528;13.316;2023-02-07T11:42:56;15.87;;;11.93;;
13989;SDS011;7069;52.528;13.316;2023-02-07T11:45:22;17.80;;;11.57;;
13989;SDS011;7069;52.528;13.316;2023-02-07T11:47:51;15.63;;;12.57;;
13989;SDS011;7069;52.528;13.316;2023-02-07T11:50:21;18.37;;;13.30;;
13989;SDS011;7069;52.528;13.316;2023-02-07T11:52:49;15.43;;;12.27;;
13989;SDS011;7069;52.528;13.316;2023-02-07T11:55:17;21.20;;;12.77;;
13989;SDS011;7069;52.528;13.316;2023-02-07T11:57:45;17.07;;;13.03;;
13989;SDS011;7069;52.528;13.316;2023-02-07T12:00:15;15.47;;;12.73;;
13989;SDS011;7069;52.528;13.316;2023-02-07T12:02:44;18.70;;;13.67;;
13989;SDS011;7069;52.528;13.316;2023-02-07T12:05:16;13.50;;;11.17;;
13989;SDS011;7069;52.528;13.316;2023-02-07T12:07:45;16.63;;;12.80;;
13989;SDS011;7069;52.528;13.316;2023-02-07T12:10:13;16.07;;;11.37;;
13989;SDS011;7069;52.528;13.316;2023-02-07T12:12:41;20.60;;;13.53;;
13989;SDS011;7069;52.528;13.316;2023-02-07T12:15:11;16.77;;;12.17;;
13989;SDS011;7069;52.528;13.316;2023-02-07T12:17:40;14.27;;;10.70;;
13989;SDS011;7069;52.528;13.316;2023-02-07T12:20:10;16.93;;;10.60;;
13989;SDS011;7069;52.528;13.316;2023-02-07T12:22:40;18.37;;;12.17;;
13989;SDS011;7069;52.528;13.316;2023-02-07T12:25:13;15.17;;;10.80;;
13989;SDS011;7069;52.528;13.316;2023-02-07T12:27:42;15.70;;;11.80;;
13989;SDS011;7069;52.528;13.316;2023-02-07T12:30:11;22.47;;;14.47;;
13989;SDS011;7069;52.528;13.316;2023-02-07T12:32:41;18.63;;;13.10;;
13989;SDS011;7069;52.528;13.316;2023-02-07T12:35:12;17.63;;;12.53;;
13989;SDS011;7069;52.528;13.316;2023-02-07T12:37:40;17.23;;;12.60;;
13989;SDS011;7069;52.528;13.316;2023-02-07T12:40:11;22.73;;;13.53;;
13989;SDS011;7069;52.528;13.316;2023-02-07T12:42:39;18.17;;;12.37;;
13989;SDS011;7069;52.528;13.316;2023-02-07T12:45:07;16.50;;;11.13;;
13989;SDS011;7069;52.528;13.316;2023-02-07T12:47:48;14.47;;;12.67;;
13989;SDS011;7069;52.528;13.316;2023-02-07T12:53:07;17.40;;;11.57;;
13989;SDS011;7069;52.528;13.316;2023-02-07T12:55:41;15.97;;;12.07;;
13989;SDS011;7069;52.528;13.316;2023-02-07T12:58:13;14.87;;;10.70;;
13989;SDS011;7069;52.528;13.316;2023-02-07T13:00:47;14.60;;;10.17;;
13989;SDS011;7069;52.528;13.316;2023-02-07T13:03:17;14.27;;;11.23;;
13989;SDS011;7069;52.528;13.316;2023-02-07T13:05:56;15.20;;;11.13;;
13989;SDS011;7069;52.528;13.316;2023-02-07T13:08:28;15.40;;;12.30;;
13989;SDS011;7069;52.528;13.316;2023-02-07T13:11:02;17.10;;;10.60;;
13989;SDS011;7069;52.528;13.316;2023-02-07T13:13:34;15.77;;;10.40;;
13989;SDS011;7069;52.528;13.316;2023-02-07T13:16:03;13.07;;;9.80;;
13989;SDS011;7069;52.528;13.316;2023-02-07T13:18:34;15.50;;;10.90;;
13989;SDS011;7069;52.528;13.316;2023-02-07T13:21:04;15.97;;;10.30;;
13989;SDS011;7069;52.528;13.316;2023-02-07T13:23:34;17.07;;;10.23;;
13989;SDS011;7069;52.528;13.316;2023-02-07T13:26:05;12.57;;;10.47;;
13989;SDS011;7069;52.528;13.316;2023-02-07T13:28:37;14.90;;;10.20;;
13989;SDS011;7069;52.528;13.316;2023-02-07T13:31:05;13.00;;;9.63;;
13989;SDS011;7069;52.528;13.316;2023-02-07T13:33:34;13.07;;;10.23;;
13989;SDS011;7069;52.528;13.316;2023-02-07T13:36:03;14.87;;;10.67;;
13989;SDS011;7069;52.528;13.316;2023-02-07T13:41:16;14.80;;;9.47;;
13989;SDS011;7069;52.528;13.316;2023-02-07T13:43:48;12.47;;;10.17;;
13989;SDS011;7069;52.528;13.316;2023-02-07T13:46:21;13.97;;;11.17;;
13989;SDS011;7069;52.528;13.316;2023-02-07T13:48:53;14.00;;;10.67;;
13989;SDS011;7069;52.528;13.316;2023-02-07T13:51:22;13.23;;;9.20;;
13989;SDS011;7069;52.528;13.316;2023-02-07T13:53:54;15.13;;;10.00;;
13989;SDS011;7069;52.528;13.316;2023-02-07T13:56:30;15.50;;;10.93;;
13989;SDS011;7069;52.528;13.316;2023-02-07T13:59:32;12.87;;;10.60;;
13989;SDS011;7069;52.528;13.316;2023-02-07T14:02:05;12.17;;;8.97;;
13989;SDS011;7069;52.528;13.316;2023-02-07T14:04:44;14.53;;;8.00;;
13989;SDS011;7069;52.528;13.316;2023-02-07T14:07:13;13.27;;;10.13;;
13989;SDS011;7069;52.528;13.316;2023-02-07T14:09:46;13.73;;;9.17;;
13989;SDS011;7069;52.528;13.316;2023-02-07T14:12:16;13.27;;;9.77;;
13989;SDS011;7069;52.528;13.316;2023-02-07T14:14:44;11.07;;;8.63;;
13989;SDS011;7069;52.528;13.316;2023-02-07T14:17:11;11.20;;;8.70;;
13989;SDS011;7069;52.528;13.316;2023-02-07T14:19:48;11.00;;;8.20;;
13989;SDS011;7069;52.528;13.316;2023-02-07T14:22:15;13.77;;;8.67;;
13989;SDS011;7069;52.528;13.316;2023-02-07T14:24:50;12.87;;;9.43;;
13989;SDS011;7069;52.528;13.316;2023-02-07T14:27:37;12.33;;;10.13;;
13989;SDS011;7069;52.528;13.316;2023-02-07T14:30:12;11.13;;;8.87;;
13989;SDS011;7069;52.528;13.316;2023-02-07T14:32:40;10.77;;;8.87;;
13989;SDS011;7069;52.528;13.316;2023-02-07T14:37:48;11.47;;;8.67;;
13989;SDS011;7069;52.528;13.316;2023-02-07T14:40:18;14.50;;;9.77;;